createdAt,value
2018-07-19T00:01:06.876Z,17.40
2018-07-19T00:03:34.531Z,17.40
2018-07-19T00:06:02.212Z,17.30
2018-07-19T00:08:29.900Z,17.40
2018-07-19T00:10:57.556Z,17.40
2018-07-19T00:13:25.190Z,17.30
2018-07-19T00:15:52.860Z,17.30
2018-07-19T00:18:24.461Z,17.20
2018-07-19T00:20:52.486Z,17.20
2018-07-19T00:23:20.137Z,17.00
2018-07-19T00:25:47.781Z,16.90
2018-07-19T00:28:15.422Z,16.90
2018-07-19T00:30:43.047Z,16.80
2018-07-19T00:33:10.684Z,16.90
2018-07-19T00:43:01.064Z,17.10
2018-07-19T00:45:28.761Z,17.00
2018-07-19T00:47:56.463Z,16.90
2018-07-19T00:50:24.092Z,17.00
2018-07-19T00:52:51.742Z,17.00
2018-07-19T00:55:19.388Z,16.80
2018-07-19T00:57:46.975Z,16.90
2018-07-19T01:00:14.628Z,16.80
2018-07-19T01:02:42.274Z,16.70
2018-07-19T01:05:09.929Z,16.70
2018-07-19T01:07:37.536Z,16.60
2018-07-19T01:10:05.308Z,16.60
2018-07-19T01:12:32.959Z,16.50
2018-07-19T01:15:00.549Z,16.50
2018-07-19T01:17:28.200Z,16.50
2018-07-19T01:19:55.849Z,16.50
2018-07-19T01:24:51.104Z,16.40
2018-07-19T01:27:18.770Z,16.30
2018-07-19T01:29:46.429Z,16.20
2018-07-19T01:32:14.100Z,16.30
2018-07-19T01:34:41.733Z,16.20
2018-07-19T01:37:09.358Z,16.10
2018-07-19T01:39:37.017Z,16.20
2018-07-19T01:42:16.669Z,16.10
2018-07-19T01:44:44.350Z,16.00
2018-07-19T01:47:12.196Z,16.00
2018-07-19T01:49:41.495Z,16.00
2018-07-19T01:52:09.313Z,15.90
2018-07-19T01:54:37.168Z,15.90
2018-07-19T01:57:05.120Z,15.90
2018-07-19T01:59:32.784Z,15.90
2018-07-19T02:02:00.435Z,15.90
2018-07-19T02:04:28.071Z,15.90
2018-07-19T02:06:55.767Z,15.80
2018-07-19T02:09:23.387Z,15.80
2018-07-19T02:11:51.213Z,15.80
2018-07-19T02:14:18.949Z,15.90
2018-07-19T02:16:46.653Z,15.80
2018-07-19T02:19:14.308Z,15.80
2018-07-19T02:21:42.785Z,15.70
2018-07-19T02:24:10.509Z,15.70
2018-07-19T02:26:38.175Z,15.70
2018-07-19T02:29:06.407Z,15.50
2018-07-19T02:31:34.460Z,15.60
2018-07-19T02:34:02.576Z,15.60
2018-07-19T02:36:30.255Z,15.60
2018-07-19T02:38:57.957Z,15.50
2018-07-19T02:41:25.611Z,15.50
2018-07-19T02:43:53.304Z,15.50
2018-07-19T02:46:20.871Z,15.50
2018-07-19T02:48:48.487Z,15.60
2018-07-19T02:51:16.129Z,15.60
2018-07-19T02:56:11.346Z,15.60
2018-07-19T02:58:38.985Z,15.60
2018-07-19T03:01:06.674Z,15.60
2018-07-19T03:03:34.301Z,15.50
2018-07-19T03:06:02.143Z,15.50
2018-07-19T03:08:29.824Z,15.50
2018-07-19T03:10:57.460Z,15.40
2018-07-19T03:13:25.133Z,15.40
2018-07-19T03:15:52.775Z,15.40
2018-07-19T03:18:20.571Z,15.30
2018-07-19T03:20:48.234Z,15.40
2018-07-19T03:23:15.872Z,15.50
2018-07-19T03:25:43.551Z,15.50
2018-07-19T03:28:11.200Z,15.50
2018-07-19T03:30:38.861Z,15.50
2018-07-19T03:33:06.815Z,15.50
2018-07-19T03:35:34.452Z,15.40
2018-07-19T03:38:02.128Z,15.40
2018-07-19T03:40:29.786Z,15.30
2018-07-19T03:42:57.422Z,15.20
2018-07-19T03:45:25.101Z,15.20
2018-07-19T03:47:52.728Z,15.20
2018-07-19T03:52:47.936Z,15.00
2018-07-19T03:55:15.571Z,15.00
2018-07-19T03:57:43.235Z,15.00
2018-07-19T04:00:10.858Z,15.00
2018-07-19T04:02:38.598Z,15.10
2018-07-19T04:05:06.290Z,15.10
2018-07-19T04:07:33.917Z,15.00
2018-07-19T04:10:01.569Z,15.00
2018-07-19T04:12:29.254Z,15.00
2018-07-19T04:14:56.856Z,15.00
2018-07-19T04:17:24.522Z,15.00
2018-07-19T04:19:52.186Z,15.10
2018-07-19T04:22:19.838Z,15.10
2018-07-19T04:24:47.469Z,15.20
2018-07-19T04:27:15.162Z,15.10
2018-07-19T04:29:42.812Z,15.00
2018-07-19T04:32:10.419Z,15.10
2018-07-19T04:34:38.089Z,15.20
2018-07-19T04:37:05.756Z,15.20
2018-07-19T04:39:33.401Z,15.20
2018-07-19T04:42:01.032Z,15.20
2018-07-19T04:44:28.687Z,15.30
2018-07-19T04:46:57.167Z,15.30
2018-07-19T04:49:25.876Z,15.40
2018-07-19T04:51:53.561Z,15.40
2018-07-19T04:54:21.305Z,15.50
2018-07-19T04:56:48.938Z,15.50
2018-07-19T04:59:16.605Z,15.60
2018-07-19T05:01:44.397Z,15.70
2018-07-19T05:04:11.945Z,15.80
2018-07-19T05:06:39.590Z,15.80
2018-07-19T05:09:08.386Z,15.90
2018-07-19T05:11:36.008Z,16.00
2018-07-19T05:14:04.230Z,16.10
2018-07-19T05:16:32.022Z,16.20
2018-07-19T05:18:59.657Z,16.30
2018-07-19T05:21:27.280Z,16.40
2018-07-19T05:23:54.928Z,16.50
2018-07-19T05:26:22.554Z,16.70
2018-07-19T05:31:17.772Z,16.90
2018-07-19T05:43:37.497Z,17.50
2018-07-19T05:46:05.186Z,17.80
2018-07-19T05:48:32.870Z,17.90
2018-07-19T05:51:00.547Z,18.00
2018-07-19T05:53:28.188Z,18.20
2018-07-19T05:55:55.981Z,18.30
2018-07-19T05:58:23.701Z,18.50
2018-07-19T06:00:51.323Z,18.60
2018-07-19T06:05:46.828Z,18.90
2018-07-19T06:08:14.541Z,19.00
2018-07-19T06:10:42.199Z,19.20
2018-07-19T06:13:10.027Z,19.20
2018-07-19T06:15:37.659Z,19.30
2018-07-19T06:18:05.369Z,19.40
2018-07-19T06:20:33.015Z,19.50
2018-07-19T06:23:00.683Z,19.60
2018-07-19T06:25:28.349Z,19.70
2018-07-19T06:27:56.067Z,19.80
2018-07-19T06:30:23.767Z,19.90
2018-07-19T06:32:51.436Z,20.00
2018-07-19T06:35:19.199Z,20.10
2018-07-19T06:37:46.829Z,20.20
2018-07-19T06:40:14.909Z,20.40
2018-07-19T06:45:10.152Z,20.50
2018-07-19T06:47:37.787Z,20.60
2018-07-19T06:50:05.467Z,20.60
2018-07-19T06:52:33.073Z,20.70
2018-07-19T06:55:00.771Z,20.90
2018-07-19T06:57:28.419Z,20.80
2018-07-19T06:59:56.047Z,21.00
2018-07-19T07:02:23.749Z,21.10
2018-07-19T07:04:51.842Z,21.30
2018-07-19T07:07:19.492Z,21.40
2018-07-19T07:09:47.121Z,21.60
2018-07-19T07:12:15.078Z,21.70
2018-07-19T07:14:42.760Z,21.80
2018-07-19T07:17:10.447Z,21.90
2018-07-19T07:19:38.091Z,21.80
2018-07-19T07:22:05.855Z,22.00
2018-07-19T07:27:01.876Z,22.00
2018-07-19T07:29:29.517Z,22.10
2018-07-19T07:31:57.184Z,22.20
2018-07-19T07:34:24.875Z,22.40
2018-07-19T07:36:52.545Z,22.50
2018-07-19T07:39:20.246Z,22.60
2018-07-19T07:41:47.931Z,22.70
2018-07-19T07:44:15.652Z,22.80
2018-07-19T07:46:43.288Z,22.80
2018-07-19T07:49:10.936Z,22.90
2018-07-19T07:51:38.600Z,23.10
2018-07-19T07:54:06.275Z,23.30
2018-07-19T07:56:33.926Z,23.40
2018-07-19T07:59:01.724Z,23.60
2018-07-19T08:01:29.435Z,23.70
2018-07-19T08:03:57.071Z,23.80
2018-07-19T08:06:24.710Z,24.00
2018-07-19T08:08:52.328Z,24.10
2018-07-19T08:11:20.203Z,24.20
2018-07-19T08:13:47.856Z,24.40
2018-07-19T08:16:15.551Z,24.40
2018-07-19T08:18:43.330Z,24.60
2018-07-19T08:23:38.670Z,24.60
2018-07-19T08:26:06.292Z,24.70
2018-07-19T08:31:01.558Z,25.20
2018-07-19T08:33:29.216Z,25.30
2018-07-19T08:35:56.897Z,25.50
2018-07-19T08:38:24.521Z,25.70
2018-07-19T08:40:52.228Z,25.80
2018-07-19T08:43:19.924Z,25.90
2018-07-19T08:45:47.622Z,26.10
2018-07-19T08:48:15.262Z,26.20
2018-07-19T08:50:42.944Z,26.10
2018-07-19T08:53:10.584Z,26.30
2018-07-19T08:55:38.226Z,26.20
2018-07-19T08:58:05.894Z,26.10
2018-07-19T09:00:33.542Z,26.30
2018-07-19T09:03:01.142Z,26.30
2018-07-19T09:05:28.800Z,26.50
2018-07-19T09:07:56.433Z,26.60
2018-07-19T09:10:24.052Z,26.60
2018-07-19T09:12:51.706Z,27.00
2018-07-19T09:15:19.348Z,27.20
2018-07-19T09:17:47.006Z,27.20
2018-07-19T09:20:14.678Z,27.40
2018-07-19T09:22:42.436Z,27.70
2018-07-19T09:25:10.085Z,27.90
2018-07-19T09:27:37.722Z,27.80
2018-07-19T09:30:06.240Z,28.00
2018-07-19T09:32:34.185Z,27.90
2018-07-19T09:35:01.884Z,28.00
2018-07-19T09:37:29.748Z,28.30
2018-07-19T09:39:57.494Z,28.20
2018-07-19T09:42:25.366Z,28.00
2018-07-19T09:44:53.270Z,27.70
2018-07-19T09:47:21.152Z,27.80
2018-07-19T09:49:48.931Z,28.00
2018-07-19T09:52:16.667Z,28.40
2018-07-19T09:54:51.071Z,28.70
2018-07-19T09:57:19.092Z,28.60
2018-07-19T09:59:46.818Z,29.10
2018-07-19T10:02:14.712Z,29.60
2018-07-19T10:04:42.647Z,30.00
2018-07-19T10:07:10.552Z,29.80
2018-07-19T10:09:38.320Z,29.90
2018-07-19T10:12:06.192Z,29.90
2018-07-19T10:14:33.893Z,29.70
2018-07-19T10:17:01.715Z,29.60
2018-07-19T10:19:29.480Z,30.00
2018-07-19T10:21:57.453Z,29.70
2018-07-19T10:24:25.292Z,29.40
2018-07-19T10:26:53.388Z,29.50
2018-07-19T10:29:21.300Z,29.70
2018-07-19T10:31:49.035Z,29.80
2018-07-19T10:34:16.825Z,29.70
2018-07-19T10:36:44.617Z,29.60
2018-07-19T10:39:12.378Z,29.90
2018-07-19T10:41:40.413Z,29.60
2018-07-19T10:44:08.452Z,29.40
2018-07-19T10:46:36.248Z,29.30
2018-07-19T10:49:04.038Z,29.70
2018-07-19T10:51:31.797Z,29.60
2018-07-19T10:53:59.639Z,29.40
2018-07-19T10:56:27.519Z,29.80
2018-07-19T10:58:55.249Z,30.20
2018-07-19T11:01:23.010Z,30.40
2018-07-19T11:03:50.783Z,30.00
2018-07-19T11:06:18.693Z,30.00
2018-07-19T11:08:46.607Z,30.00
2018-07-19T11:11:14.427Z,30.30
2018-07-19T11:13:42.252Z,30.50
2018-07-19T11:16:10.156Z,30.50
2018-07-19T11:18:37.920Z,30.50
2018-07-19T11:21:05.814Z,30.60
2018-07-19T11:23:33.546Z,30.80
2018-07-19T11:26:01.287Z,30.60
2018-07-19T11:28:29.047Z,30.10
2018-07-19T11:30:56.745Z,30.20
2018-07-19T11:33:24.587Z,30.60
2018-07-19T11:35:52.265Z,30.70
2018-07-19T11:38:20.081Z,31.20
2018-07-19T11:40:47.859Z,31.60
2018-07-19T11:43:15.633Z,31.80
2018-07-19T11:45:43.495Z,31.20
2018-07-19T11:48:11.272Z,30.60
2018-07-19T11:50:39.039Z,30.50
2018-07-19T11:53:06.755Z,30.20
2018-07-19T11:58:02.089Z,29.60
2018-07-19T12:00:29.849Z,29.70
2018-07-19T12:02:57.561Z,29.90
2018-07-19T12:05:25.286Z,30.00
2018-07-19T12:07:52.983Z,30.20
2018-07-19T12:10:20.727Z,30.40
2018-07-19T12:12:48.539Z,30.50
2018-07-19T12:15:16.355Z,30.50
2018-07-19T12:17:44.126Z,31.10
2018-07-19T12:20:11.905Z,31.90
2018-07-19T12:22:39.786Z,32.20
2018-07-19T12:25:12.672Z,32.70
2018-07-19T12:27:40.551Z,32.10
2018-07-19T12:30:08.444Z,31.90
2018-07-19T12:32:36.578Z,31.70
2018-07-19T12:35:10.947Z,31.40
2018-07-19T12:37:38.858Z,31.40
2018-07-19T12:40:06.794Z,31.10
2018-07-19T12:42:34.797Z,30.90
2018-07-19T12:45:02.645Z,30.80
2018-07-19T12:47:30.341Z,30.60
2018-07-19T12:49:58.218Z,30.20
2018-07-19T12:54:54.029Z,30.20
2018-07-19T12:57:21.820Z,29.90
2018-07-19T12:59:49.564Z,30.00
2018-07-19T13:02:17.451Z,30.20
2018-07-19T13:04:45.979Z,30.50
2018-07-19T13:07:13.853Z,31.00
2018-07-19T13:09:41.564Z,30.90
2018-07-19T13:12:09.743Z,31.20
2018-07-19T13:14:38.406Z,32.20
2018-07-19T13:19:34.333Z,32.50
2018-07-19T13:22:02.459Z,32.20
2018-07-19T13:24:30.635Z,31.90
2018-07-19T13:26:58.838Z,31.80
2018-07-19T13:29:26.989Z,32.00
2018-07-19T13:31:54.725Z,32.20
2018-07-19T13:34:25.300Z,32.30
2018-07-19T13:36:53.233Z,33.20
2018-07-19T13:39:21.577Z,34.00
2018-07-19T13:41:49.299Z,34.00
2018-07-19T13:44:17.033Z,34.60
2018-07-19T13:46:44.811Z,34.50
2018-07-19T13:49:12.646Z,34.20
2018-07-19T13:51:40.523Z,33.90
2018-07-19T13:54:20.354Z,33.60
2018-07-19T13:56:48.336Z,33.60
2018-07-19T13:59:16.871Z,34.50
2018-07-19T14:01:44.756Z,35.60
2018-07-19T14:09:12.693Z,36.40
2018-07-19T14:11:40.692Z,36.40
2018-07-19T14:14:08.696Z,36.60
2018-07-19T14:16:36.690Z,37.00
2018-07-19T14:19:04.888Z,37.40
2018-07-19T14:21:32.776Z,38.00
2018-07-19T14:24:00.633Z,38.30
2018-07-19T14:26:28.522Z,38.00
2018-07-19T14:28:56.412Z,36.70
2018-07-19T14:31:24.336Z,36.50
2018-07-19T14:33:52.185Z,36.40
2018-07-19T14:36:20.097Z,35.90
2018-07-19T14:38:48.018Z,35.50
2018-07-19T14:41:16.238Z,35.60
2018-07-19T14:43:44.181Z,35.50
2018-07-19T14:46:12.249Z,36.00
2018-07-19T14:48:40.148Z,35.90
2018-07-19T14:51:08.603Z,36.00
2018-07-19T14:53:36.669Z,35.80
2018-07-19T14:56:04.709Z,35.80
2018-07-19T14:58:32.609Z,36.40
2018-07-19T15:01:00.565Z,37.00
2018-07-19T15:03:28.436Z,36.90
2018-07-19T15:05:56.296Z,36.90
2018-07-19T15:08:24.191Z,36.50
2018-07-19T15:10:52.290Z,37.20
2018-07-19T15:13:20.158Z,37.40
2018-07-19T15:15:48.103Z,38.00
2018-07-19T15:18:16.083Z,38.40
2018-07-19T15:20:43.927Z,38.80
2018-07-19T15:23:11.980Z,38.60
2018-07-19T15:25:39.884Z,38.90
2018-07-19T15:28:07.813Z,38.80
2018-07-19T15:30:35.764Z,38.60
2018-07-19T15:33:03.634Z,38.60
2018-07-19T15:35:31.528Z,38.90
2018-07-19T15:37:59.416Z,38.80
2018-07-19T15:40:27.288Z,38.90
2018-07-19T15:42:55.132Z,38.70
2018-07-19T15:45:23.050Z,38.10
2018-07-19T15:47:50.964Z,37.30
2018-07-19T15:50:18.853Z,37.30
2018-07-19T15:52:46.735Z,37.60
2018-07-19T15:55:14.712Z,37.60
2018-07-19T15:57:42.525Z,37.20
2018-07-19T16:00:10.515Z,36.70
2018-07-19T16:02:38.677Z,37.00
2018-07-19T16:05:06.924Z,37.00
2018-07-19T16:07:35.396Z,37.20
2018-07-19T16:10:03.597Z,36.90
2018-07-19T16:12:31.517Z,36.70
2018-07-19T16:14:59.447Z,37.20
2018-07-19T16:17:28.653Z,37.20
2018-07-19T16:19:56.795Z,37.90
2018-07-19T16:22:24.711Z,38.00
2018-07-19T16:24:52.557Z,38.40
2018-07-19T16:27:20.384Z,37.90
2018-07-19T16:29:49.116Z,38.20
2018-07-19T16:32:16.977Z,38.00
2018-07-19T16:34:44.852Z,37.60
2018-07-19T16:37:12.731Z,37.80
2018-07-19T16:39:40.562Z,38.00
2018-07-19T16:42:08.546Z,37.70
2018-07-19T16:44:36.411Z,37.50
2018-07-19T16:47:04.359Z,37.50
2018-07-19T16:49:32.213Z,37.70
2018-07-19T16:52:00.122Z,38.40
2018-07-19T16:54:27.963Z,38.50
2018-07-19T16:56:55.915Z,38.40
2018-07-19T16:59:23.769Z,38.90
2018-07-19T17:01:51.661Z,38.30
2018-07-19T17:04:19.304Z,38.00
2018-07-19T17:06:46.948Z,38.30
2018-07-19T17:09:14.525Z,38.10
2018-07-19T17:11:42.129Z,38.20
2018-07-19T17:14:09.838Z,38.00
2018-07-19T17:16:37.442Z,37.60
2018-07-19T17:19:05.323Z,37.40
2018-07-19T17:21:32.959Z,38.20
2018-07-19T17:24:00.589Z,37.90
2018-07-19T17:26:28.197Z,38.10
2018-07-19T17:28:55.942Z,37.50
2018-07-19T17:31:23.557Z,37.10
2018-07-19T17:33:51.204Z,36.60
2018-07-19T17:36:18.801Z,36.70
2018-07-19T17:38:46.493Z,37.10
2018-07-19T17:41:14.133Z,36.90
2018-07-19T17:43:41.771Z,36.80
2018-07-19T17:46:09.397Z,36.20
2018-07-19T17:48:37.021Z,36.30
2018-07-19T17:51:04.683Z,35.80
2018-07-19T17:53:32.477Z,35.10
2018-07-19T17:56:00.100Z,34.70
2018-07-19T17:58:27.727Z,34.70
2018-07-19T18:00:55.462Z,34.40
2018-07-19T18:03:23.111Z,33.90
2018-07-19T18:05:50.742Z,33.30
2018-07-19T18:08:18.311Z,33.10
2018-07-19T18:10:45.949Z,33.10
2018-07-19T18:13:13.596Z,32.80
2018-07-19T18:15:41.236Z,32.40
2018-07-19T18:18:08.877Z,31.80
2018-07-19T18:20:36.558Z,31.20
2018-07-19T18:23:04.226Z,31.10
2018-07-19T18:25:31.852Z,30.80
2018-07-19T18:27:59.503Z,30.30
2018-07-19T18:30:27.196Z,30.10
2018-07-19T18:32:54.825Z,29.90
2018-07-19T18:35:22.458Z,29.60
2018-07-19T18:37:50.081Z,29.40
2018-07-19T18:40:17.725Z,29.40
2018-07-19T18:42:45.464Z,29.20
2018-07-19T18:45:13.074Z,29.00
2018-07-19T18:47:40.709Z,28.70
2018-07-19T18:50:08.375Z,28.50
2018-07-19T18:52:35.989Z,28.30
2018-07-19T18:55:03.694Z,28.10
2018-07-19T18:57:31.356Z,27.90
2018-07-19T18:59:59.056Z,27.70
2018-07-19T19:02:26.744Z,27.50
2018-07-19T19:04:54.430Z,27.20
2018-07-19T19:07:22.184Z,27.20
2018-07-19T19:09:49.814Z,27.10
2018-07-19T19:12:17.469Z,26.90
2018-07-19T19:14:45.101Z,26.80
2018-07-19T19:17:12.722Z,26.70
2018-07-19T19:19:40.359Z,26.60
2018-07-19T19:22:08.010Z,26.50
2018-07-19T19:24:35.608Z,26.40
2018-07-19T19:27:03.264Z,26.30
2018-07-19T19:31:58.398Z,26.20
2018-07-19T19:34:26.093Z,25.90
2018-07-19T19:36:53.913Z,25.60
2018-07-19T19:39:21.495Z,25.60
2018-07-19T19:41:49.140Z,25.50
2018-07-19T19:44:16.806Z,25.50
2018-07-19T19:46:44.419Z,25.40
2018-07-19T19:49:12.114Z,25.30
2018-07-19T19:51:39.758Z,25.20
2018-07-19T19:54:07.376Z,25.20
2018-07-19T19:59:02.554Z,25.10
2018-07-19T20:01:30.171Z,25.00
2018-07-19T20:03:58.916Z,24.90
2018-07-19T20:06:26.650Z,24.80
2018-07-19T20:08:56.575Z,24.70
2018-07-19T20:11:25.917Z,24.60
2018-07-19T20:13:53.487Z,24.50
2018-07-19T20:16:21.162Z,24.30
2018-07-19T20:18:48.787Z,24.20
2018-07-19T20:21:16.399Z,24.10
2018-07-19T20:23:44.020Z,24.10
2018-07-19T20:26:11.664Z,24.10
2018-07-19T20:28:39.308Z,24.10
2018-07-19T20:31:07.406Z,24.00
2018-07-19T20:33:35.061Z,23.90
2018-07-19T20:36:02.679Z,23.90
2018-07-19T20:38:30.318Z,23.80
2018-07-19T20:40:57.938Z,23.70
2018-07-19T20:43:25.612Z,23.70
2018-07-19T20:45:53.180Z,23.60
2018-07-19T20:48:20.814Z,23.60
2018-07-19T20:50:48.473Z,23.50
2018-07-19T20:53:16.096Z,23.30
2018-07-19T20:55:43.765Z,23.30
2018-07-19T20:58:11.402Z,23.30
2018-07-19T21:00:39.005Z,23.20
2018-07-19T21:03:06.654Z,23.00
2018-07-19T21:05:34.293Z,23.00
2018-07-19T21:08:01.937Z,23.00
2018-07-19T21:10:29.549Z,22.80
2018-07-19T21:12:57.179Z,22.80
2018-07-19T21:15:24.801Z,22.70
2018-07-19T21:17:52.409Z,22.70
2018-07-19T21:20:20.059Z,22.60
2018-07-19T21:22:47.658Z,22.50
2018-07-19T21:25:15.275Z,22.50
2018-07-19T21:27:42.965Z,22.40
2018-07-19T21:30:10.593Z,22.30
2018-07-19T21:32:38.191Z,22.20
2018-07-19T21:35:05.829Z,22.10
2018-07-19T21:37:33.431Z,22.10
2018-07-19T21:40:01.059Z,22.10
2018-07-19T21:42:28.682Z,22.00
2018-07-19T21:44:56.306Z,21.90
2018-07-19T21:47:24.406Z,21.90
2018-07-19T21:49:52.100Z,21.90
2018-07-19T21:52:19.753Z,21.80
2018-07-19T21:54:47.368Z,21.80
2018-07-19T21:57:14.996Z,21.80
2018-07-19T21:59:42.604Z,21.70
2018-07-19T22:02:12.546Z,21.60
2018-07-19T22:04:40.217Z,21.70
2018-07-19T22:07:07.865Z,21.60
2018-07-19T22:09:35.615Z,21.70
2018-07-19T22:12:03.265Z,21.60
2018-07-19T22:14:30.902Z,21.50
2018-07-19T22:16:58.607Z,21.50
2018-07-19T22:19:26.212Z,21.40
2018-07-19T22:21:53.845Z,21.40
2018-07-19T22:24:21.457Z,21.30
2018-07-19T22:26:49.077Z,21.30
2018-07-19T22:29:16.723Z,21.10
2018-07-19T22:31:44.323Z,21.10
2018-07-19T22:34:11.919Z,21.00
2018-07-19T22:36:39.533Z,20.90
2018-07-19T22:39:09.127Z,20.90
2018-07-19T22:41:36.732Z,20.80
2018-07-19T22:44:04.349Z,20.80
2018-07-19T22:46:32.012Z,20.70
2018-07-19T22:48:59.655Z,20.60
2018-07-19T22:51:27.283Z,20.40
2018-07-19T22:53:54.913Z,20.30
2018-07-19T22:56:22.613Z,20.20
2018-07-19T22:58:50.244Z,20.00
2018-07-19T23:01:17.869Z,20.00
2018-07-19T23:03:45.519Z,20.00
2018-07-19T23:06:13.103Z,19.90
2018-07-19T23:08:40.698Z,19.70
2018-07-19T23:11:08.307Z,19.60
2018-07-19T23:13:35.942Z,19.60
2018-07-19T23:16:03.552Z,19.60
2018-07-19T23:18:31.414Z,19.70
2018-07-19T23:20:59.066Z,19.70
2018-07-19T23:23:26.687Z,19.60
2018-07-19T23:25:54.329Z,19.50
2018-07-19T23:28:21.972Z,19.40
2018-07-19T23:30:49.640Z,19.30
2018-07-19T23:33:17.323Z,19.20
2018-07-19T23:35:48.048Z,19.20
2018-07-19T23:38:50.548Z,19.20
2018-07-19T23:41:27.300Z,19.00
2018-07-19T23:43:58.884Z,18.90
2018-07-19T23:46:31.938Z,18.90
2018-07-19T23:49:06.005Z,18.70
2018-07-19T23:51:34.522Z,18.60
2018-07-19T23:54:02.115Z,18.60
2018-07-19T23:56:29.765Z,18.50
